Time;durP1;ratioP1;P1;durP2;ratioP2;P2;SDS_P1;SDS_P2;PMS_P1;PMS_P2;Temp;Humidity;BMP_temperature;BMP_pressure;BME280_temperature;BME280_humidity;BME280_pressure;Samples;Min_cycle;Max_cycle;Signal;HPM_P1;HPM_P2
2022/04/21 00:01:26;;;;;;;2.63;1.90;;;9.90;99.90;;;;;;5037205;28;20697;-75
2022/04/21 00:04:10;;;;;;;3.10;2.13;;;9.90;99.90;;;;;;5037376;28;20218;-73
2022/04/21 00:06:54;;;;;;;2.80;2.00;;;9.80;99.90;;;;;;5019355;28;20259;-73
2022/04/21 00:09:38;;;;;;;4.83;2.30;;;9.80;99.90;;;;;;5024327;28;20191;-73
2022/04/21 00:12:23;;;;;;;2.30;2.10;;;9.80;99.90;;;;;;5023925;28;20243;-73
2022/04/21 00:15:08;;;;;;;3.70;2.53;;;9.80;99.90;;;;;;5041747;28;20206;-72
2022/04/21 00:17:53;;;;;;;2.87;2.20;;;9.70;99.90;;;;;;5038318;28;20188;-73
2022/04/21 00:20:37;;;;;;;3.93;2.10;;;9.70;99.90;;;;;;5019632;28;20199;-73
2022/04/21 00:23:26;;;;;;;3.50;2.10;;;9.70;99.90;;;;;;5017190;28;20179;-73
2022/04/21 00:26:13;;;;;;;2.97;2.17;;;9.70;99.90;;;;;;5032171;28;20213;-74
2022/04/21 00:28:57;;;;;;;2.33;2.13;;;9.60;99.90;;;;;;5022705;28;20236;-72
2022/04/21 00:31:41;;;;;;;2.50;2.00;;;9.50;99.90;;;;;;5025571;28;20282;-74
2022/04/21 00:34:26;;;;;;;2.27;2.07;;;9.50;99.90;;;;;;5034972;28;20176;-74
2022/04/21 00:37:10;;;;;;;4.40;2.70;;;9.50;99.90;;;;;;5023485;28;20269;-73
2022/04/21 00:39:55;;;;;;;7.23;2.30;;;9.50;99.90;;;;;;5016610;28;20187;-75
2022/04/21 00:42:39;;;;;;;3.70;2.20;;;9.40;99.90;;;;;;5039326;28;20663;-74
2022/04/21 00:45:24;;;;;;;2.97;2.57;;;9.40;99.90;;;;;;5034916;28;20214;-74
2022/04/21 00:48:08;;;;;;;4.33;2.33;;;9.40;99.90;;;;;;5026081;28;20186;-74
2022/04/21 00:50:52;;;;;;;4.03;2.57;;;9.30;99.90;;;;;;5031515;28;20340;-74
2022/04/21 00:53:38;;;;;;;3.53;2.67;;;9.30;99.90;;;;;;5020490;28;20239;-72
2022/04/21 00:56:23;;;;;;;4.43;2.67;;;9.20;99.90;;;;;;5036935;28;20232;-73
2022/04/21 00:59:09;;;;;;;2.50;2.30;;;9.20;99.90;;;;;;5034835;28;20223;-73
2022/04/21 01:04:56;;;;;;;3.53;2.80;;;9.10;99.90;;;;;;5023231;28;20616;-73
2022/04/21 01:07:41;;;;;;;3.90;3.07;;;9.10;99.90;;;;;;5032695;28;20195;-74
2022/04/21 01:10:27;;;;;;;3.63;2.60;;;9.00;99.90;;;;;;5029288;28;20238;-74
2022/04/21 01:13:16;;;;;;;5.13;2.87;;;9.00;99.90;;;;;;5007631;28;20268;-73
2022/04/21 01:16:00;;;;;;;3.77;3.10;;;9.00;99.90;;;;;;5013284;28;20251;-73
2022/04/21 01:18:44;;;;;;;4.63;3.07;;;8.90;99.90;;;;;;5002107;28;20207;-73
2022/04/21 01:21:28;;;;;;;4.77;3.07;;;8.90;99.90;;;;;;5020975;28;20199;-73
2022/04/21 01:24:12;;;;;;;4.43;3.03;;;8.90;99.90;;;;;;5037294;28;20199;-74
2022/04/21 01:26:58;;;;;;;4.80;3.17;;;8.90;99.90;;;;;;5036061;28;20250;-73
2022/04/21 01:29:43;;;;;;;3.43;2.80;;;8.80;99.90;;;;;;5022406;28;20189;-71
2022/04/21 01:32:27;;;;;;;4.87;3.13;;;8.80;99.90;;;;;;5023484;28;20290;-73
2022/04/21 01:35:13;;;;;;;5.20;2.90;;;8.80;99.90;;;;;;5019243;28;20262;-74
2022/04/21 01:41:09;;;;;;;5.03;3.17;;;8.70;99.90;;;;;;5018796;28;20249;-72
2022/04/21 01:43:53;;;;;;;6.07;3.33;;;8.70;99.90;;;;;;5032373;28;20201;-74
2022/04/21 01:46:37;;;;;;;6.63;3.63;;;8.70;99.90;;;;;;5026880;28;20254;-74
2022/04/21 01:49:21;;;;;;;4.33;3.37;;;8.70;99.90;;;;;;5016020;28;20707;-73
2022/04/21 01:52:06;;;;;;;4.87;3.60;;;8.60;99.90;;;;;;5017579;28;20742;-73
2022/04/21 01:54:50;;;;;;;5.33;3.37;;;8.60;99.90;;;;;;5021800;28;20192;-74
2022/04/21 01:57:34;;;;;;;6.07;3.43;;;8.60;99.90;;;;;;5019870;28;20171;-74
2022/04/21 02:00:19;;;;;;;4.87;3.40;;;8.50;99.90;;;;;;5019710;28;20222;-73
2022/04/21 02:03:03;;;;;;;4.53;3.67;;;8.50;99.90;;;;;;5034069;28;20187;-75
2022/04/21 02:05:47;;;;;;;4.07;3.50;;;8.40;99.90;;;;;;5032372;28;20214;-72
2022/04/21 02:08:31;;;;;;;3.80;3.43;;;8.50;99.90;;;;;;5018886;28;20234;-72
2022/04/21 02:11:16;;;;;;;5.23;3.47;;;8.40;99.90;;;;;;5031819;28;20787;-72
2022/04/21 02:14:00;;;;;;;4.27;3.17;;;8.30;99.90;;;;;;5031995;28;20187;-73
2022/04/21 02:16:44;;;;;;;5.20;3.53;;;8.30;99.90;;;;;;5021279;28;20218;-74
2022/04/21 02:19:29;;;;;;;7.37;4.03;;;8.30;99.90;;;;;;5019662;28;20251;-73
2022/04/21 02:22:13;;;;;;;3.47;2.97;;;8.30;99.90;;;;;;5020765;28;20725;-72
2022/04/21 02:24:57;;;;;;;6.07;3.77;;;8.30;99.90;;;;;;5019101;28;20179;-71
2022/04/21 02:27:43;;;;;;;4.40;3.57;;;8.30;99.90;;;;;;5038048;28;20230;-73
2022/04/21 02:30:28;;;;;;;4.90;3.57;;;8.20;99.90;;;;;;5034197;28;20251;-74
2022/04/21 02:33:12;;;;;;;5.13;3.80;;;8.20;99.90;;;;;;5019831;28;20206;-72
2022/04/21 02:35:56;;;;;;;7.47;3.97;;;8.20;99.90;;;;;;5031052;28;20390;-74
2022/04/21 02:38:40;;;;;;;4.87;3.67;;;8.10;99.90;;;;;;5016602;28;20214;-71
2022/04/21 02:41:26;;;;;;;5.10;3.87;;;8.10;99.90;;;;;;5019222;28;20246;-73
2022/04/21 02:44:10;;;;;;;5.17;3.80;;;8.10;99.90;;;;;;5034036;28;20231;-73
2022/04/21 02:46:54;;;;;;;5.33;3.67;;;8.10;99.90;;;;;;5031142;28;20572;-74
2022/04/21 02:49:40;;;;;;;6.20;3.67;;;8.10;99.90;;;;;;5025931;28;20180;-74
2022/04/21 02:52:25;;;;;;;6.43;3.87;;;8.10;99.90;;;;;;5032277;28;20231;-74
2022/04/21 02:58:14;;;;;;;5.33;4.03;;;8.00;99.90;;;;;;5026158;28;20179;-73
2022/04/21 03:00:58;;;;;;;4.50;3.87;;;8.00;99.90;;;;;;5023626;28;20175;-73
2022/04/21 03:03:42;;;;;;;6.17;3.77;;;8.00;99.90;;;;;;5019833;28;20561;-73
2022/04/21 03:06:26;;;;;;;4.13;3.73;;;7.90;99.90;;;;;;5020318;28;20228;-74
2022/04/21 03:09:10;;;;;;;6.13;3.70;;;7.90;99.90;;;;;;5017222;28;20176;-74
2022/04/21 03:12:01;;;;;;;5.30;3.80;;;7.90;99.90;;;;;;5032071;28;20212;-73
2022/04/21 03:14:45;;;;;;;4.10;3.70;;;7.80;99.90;;;;;;5021486;28;20216;-74
2022/04/21 03:17:29;;;;;;;6.03;4.10;;;7.80;99.90;;;;;;5017186;28;20197;-72
2022/04/21 03:24:18;;;;;;;5.47;4.03;;;7.80;99.90;;;;;;5014799;28;20231;-74
2022/04/21 03:26:21;;;;;;;4.63;3.80;;;7.80;99.90;;;;;;5027193;28;20758;-72
2022/04/21 03:29:05;;;;;;;5.73;4.27;;;7.70;99.90;;;;;;5027561;28;20176;-72
2022/04/21 03:31:50;;;;;;;8.07;4.67;;;7.70;99.90;;;;;;5037879;28;20220;-73
2022/04/21 03:34:34;;;;;;;4.97;4.00;;;7.70;99.90;;;;;;5024031;28;20265;-74
2022/04/21 03:37:19;;;;;;;5.40;4.07;;;7.70;99.90;;;;;;5016333;28;20192;-74
2022/04/21 03:40:04;;;;;;;4.27;3.87;;;7.60;99.90;;;;;;5023157;28;20238;-73
2022/04/21 03:42:48;;;;;;;5.07;4.17;;;7.60;99.90;;;;;;5036916;28;20260;-73
2022/04/21 03:45:33;;;;;;;4.43;4.03;;;7.60;99.90;;;;;;5035466;28;20262;-71
2022/04/21 03:48:18;;;;;;;4.60;3.87;;;7.60;99.90;;;;;;5025998;28;20209;-74
2022/04/21 03:51:02;;;;;;;8.50;4.50;;;7.60;99.90;;;;;;5022819;28;20262;-74
2022/04/21 03:53:46;;;;;;;4.63;4.00;;;7.50;99.90;;;;;;5021676;28;20347;-75
2022/04/21 03:56:30;;;;;;;6.03;4.27;;;7.50;99.90;;;;;;5024808;28;20258;-73
2022/04/21 03:59:15;;;;;;;5.63;3.93;;;7.50;99.90;;;;;;5034775;28;20180;-73
2022/04/21 04:02:02;;;;;;;7.03;4.53;;;7.50;99.90;;;;;;5034346;28;20210;-72
2022/04/21 04:04:46;;;;;;;6.37;4.27;;;7.50;99.90;;;;;;5022727;28;20191;-75
2022/04/21 04:10:52;;;;;;;7.73;5.37;;;7.40;99.90;;;;;;5023218;28;20183;-73
2022/04/21 04:13:37;;;;;;;7.50;5.33;;;7.30;99.90;;;;;;5019724;28;20203;-74
2022/04/21 04:16:21;;;;;;;7.67;5.27;;;7.30;99.90;;;;;;5020912;28;20207;-75
2022/04/21 04:19:08;;;;;;;8.80;5.70;;;7.30;99.90;;;;;;5022424;28;20245;-73
2022/04/21 04:21:53;;;;;;;8.83;5.43;;;7.30;99.90;;;;;;5017223;28;20268;-74
2022/04/21 04:24:36;;;;;;;5.33;4.43;;;7.30;99.90;;;;;;5018051;28;20575;-74
2022/04/21 04:27:22;;;;;;;10.23;4.93;;;7.20;99.90;;;;;;5020680;28;20188;-74
2022/04/21 04:30:08;;;;;;;7.57;4.80;;;7.20;99.90;;;;;;5036977;28;20182;-73
2022/04/21 04:32:52;;;;;;;6.37;4.57;;;7.20;99.90;;;;;;5021794;28;20223;-74
2022/04/21 04:35:36;;;;;;;5.37;4.80;;;7.20;99.90;;;;;;5021686;28;20237;-74
2022/04/21 04:38:21;;;;;;;8.73;4.40;;;7.10;99.90;;;;;;5016049;28;20714;-73
2022/04/21 04:44:08;;;;;;;6.60;4.70;;;7.10;99.90;;;;;;5024918;28;20179;-71
2022/04/21 04:46:52;;;;;;;7.13;4.37;;;7.10;99.90;;;;;;5019364;28;20219;-72
2022/04/21 04:49:37;;;;;;;6.97;4.07;;;7.10;99.90;;;;;;5024439;28;20224;-73
2022/04/21 04:52:21;;;;;;;5.10;4.53;;;7.10;99.90;;;;;;5025444;28;20306;-74
2022/04/21 04:55:09;;;;;;;9.67;4.20;;;7.10;99.90;;;;;;5018702;28;20196;-72
2022/04/21 04:57:54;;;;;;;5.60;4.43;;;7.10;99.90;;;;;;5020879;28;20534;-72
2022/04/21 05:00:38;;;;;;;4.63;4.17;;;7.10;99.90;;;;;;5019419;28;20273;-73
2022/04/21 05:03:22;;;;;;;5.57;4.30;;;7.10;99.90;;;;;;5019636;28;20623;-73
2022/04/21 05:06:06;;;;;;;6.83;4.07;;;7.10;99.90;;;;;;5016876;28;20575;-72
2022/04/21 05:08:54;;;;;;;5.20;3.87;;;7.10;99.90;;;;;;5020282;28;20703;-73
2022/04/21 05:11:40;;;;;;;5.73;4.07;;;7.10;99.90;;;;;;5024748;28;20262;-73
2022/04/21 05:14:25;;;;;;;6.57;4.10;;;7.10;99.90;;;;;;5029793;28;20200;-73
2022/04/21 05:17:09;;;;;;;5.83;4.27;;;7.20;99.90;;;;;;5018866;28;20220;-73
2022/04/21 05:19:54;;;;;;;6.50;4.13;;;7.20;99.90;;;;;;5015284;28;20201;-73
2022/04/21 05:22:39;;;;;;;7.07;4.23;;;7.30;99.90;;;;;;5015965;28;20180;-73
2022/04/21 05:25:30;;;;;;;5.37;4.10;;;7.30;99.90;;;;;;5018704;28;20266;-74
2022/04/21 05:28:14;;;;;;;5.00;4.17;;;7.40;99.90;;;;;;5013706;28;20191;-72
2022/04/21 05:31:00;;;;;;;7.80;3.70;;;7.40;99.90;;;;;;5027203;28;20271;-72
2022/04/21 05:33:45;;;;;;;5.80;4.13;;;7.50;99.90;;;;;;5020268;28;20296;-74
2022/04/21 05:36:29;;;;;;;5.53;4.20;;;7.50;99.90;;;;;;5021026;28;20288;-73
2022/04/21 05:39:14;;;;;;;6.23;3.67;;;7.60;99.90;;;;;;5019296;28;20188;-72
2022/04/21 05:41:58;;;;;;;9.27;3.80;;;7.60;99.90;;;;;;5018345;28;20211;-73
2022/04/21 05:44:43;;;;;;;6.53;4.00;;;7.70;99.90;;;;;;5016121;28;20553;-73
2022/04/21 05:47:28;;;;;;;5.83;3.80;;;7.70;99.90;;;;;;5019453;28;20255;-73
2022/04/21 05:50:13;;;;;;;4.57;3.50;;;7.80;99.90;;;;;;5014496;28;20235;-74
2022/04/21 05:53:03;;;;;;;7.43;3.87;;;7.80;99.90;;;;;;5018354;28;20263;-73
2022/04/21 05:55:49;;;;;;;5.97;3.40;;;7.90;99.90;;;;;;5026691;28;20211;-73
2022/04/21 05:58:36;;;;;;;6.17;3.87;;;7.90;99.90;;;;;;5016122;28;20545;-72
2022/04/21 06:01:20;;;;;;;5.90;3.73;;;7.90;99.90;;;;;;5020095;28;20207;-73
2022/04/21 06:04:04;;;;;;;6.60;3.93;;;8.00;99.90;;;;;;5013748;28;20188;-73
2022/04/21 06:06:50;;;;;;;6.30;3.53;;;8.10;99.90;;;;;;5015988;28;20214;-72
2022/04/21 06:09:34;;;;;;;5.77;3.57;;;8.10;99.90;;;;;;5015254;28;20212;-73
2022/04/21 06:12:18;;;;;;;7.03;3.70;;;8.20;99.90;;;;;;5020246;28;20208;-72
2022/04/21 06:15:02;;;;;;;12.33;4.17;;;8.20;99.90;;;;;;5026989;28;20232;-73
2022/04/21 06:17:46;;;;;;;4.57;3.50;;;8.30;99.90;;;;;;5013729;28;20763;-74
2022/04/21 06:20:30;;;;;;;4.93;3.47;;;8.30;99.90;;;;;;5014037;28;20734;-73
2022/04/21 06:23:15;;;;;;;9.70;3.90;;;8.40;99.90;;;;;;5034703;28;20207;-74
2022/04/21 06:26:00;;;;;;;6.33;3.87;;;8.40;99.90;;;;;;5031566;28;20211;-73
2022/04/21 06:28:44;;;;;;;3.93;3.50;;;8.50;99.90;;;;;;5030678;28;20175;-71
2022/04/21 06:31:29;;;;;;;6.93;3.73;;;8.50;99.90;;;;;;5025589;28;20692;-71
2022/04/21 06:34:13;;;;;;;5.10;3.73;;;8.50;99.90;;;;;;5017351;28;20225;-71
2022/04/21 06:36:57;;;;;;;5.27;3.27;;;8.60;99.90;;;;;;5025790;28;20211;-71
2022/04/21 06:39:41;;;;;;;5.63;3.67;;;8.60;99.90;;;;;;5016419;28;20175;-71
2022/04/21 06:42:25;;;;;;;6.80;3.73;;;8.60;99.90;;;;;;5018264;28;20220;-70
2022/04/21 06:48:13;;;;;;;6.37;3.57;;;8.70;99.90;;;;;;5016491;28;20718;-72
2022/04/21 06:50:57;;;;;;;4.17;3.23;;;8.80;99.90;;;;;;5020026;28;20180;-72
2022/04/21 06:53:42;;;;;;;4.67;3.87;;;8.80;99.90;;;;;;5017189;28;20903;-74
2022/04/21 06:56:26;;;;;;;4.07;3.50;;;8.90;99.90;;;;;;5018741;28;20262;-73
2022/04/21 06:59:11;;;;;;;3.97;3.17;;;8.90;99.90;;;;;;5019928;28;20227;-73
2022/04/21 07:01:55;;;;;;;4.30;3.33;;;8.90;99.90;;;;;;5020913;28;20191;-73
2022/04/21 07:04:39;;;;;;;4.50;3.20;;;9.00;99.90;;;;;;5025681;28;20260;-74
2022/04/21 07:07:23;;;;;;;5.17;3.60;;;9.00;99.90;;;;;;5024533;28;20199;-73
2022/04/21 07:10:08;;;;;;;4.67;3.33;;;9.00;99.90;;;;;;5019531;28;20187;-73
2022/04/21 07:12:52;;;;;;;4.17;3.10;;;9.10;99.90;;;;;;5026592;28;20246;-73
2022/04/21 07:15:36;;;;;;;5.97;2.93;;;9.20;99.90;;;;;;5021318;28;20220;-73
2022/04/21 07:18:21;;;;;;;7.13;2.80;;;9.30;99.90;;;;;;5019994;28;20592;-73
2022/04/21 07:21:09;;;;;;;6.40;2.90;;;9.30;99.90;;;;;;5017909;28;20224;-74
2022/04/21 07:23:53;;;;;;;4.53;2.87;;;9.30;99.90;;;;;;5022309;28;20658;-73
2022/04/21 07:26:38;;;;;;;6.03;3.50;;;9.40;99.90;;;;;;5018895;28;20272;-73
2022/04/21 07:29:22;;;;;;;4.87;3.07;;;9.50;99.90;;;;;;5038378;28;20648;-73
2022/04/21 07:32:07;;;;;;;4.37;3.27;;;9.60;99.90;;;;;;5023435;28;20228;-73
2022/04/21 07:34:51;;;;;;;3.87;3.10;;;9.70;99.90;;;;;;5033315;28;20175;-74
2022/04/21 07:37:37;;;;;;;3.10;2.80;;;9.80;99.90;;;;;;5018645;28;20183;-72
2022/04/21 07:40:23;;;;;;;7.00;3.03;;;9.90;99.90;;;;;;5034163;28;20215;-74
2022/04/21 07:43:08;;;;;;;4.60;3.37;;;9.90;99.90;;;;;;5017911;28;20219;-74
2022/04/21 07:45:52;;;;;;;6.20;3.10;;;10.00;99.90;;;;;;5024202;28;20230;-74
2022/04/21 07:51:39;;;;;;;5.70;3.40;;;10.20;99.90;;;;;;5021363;28;20224;-74
2022/04/21 07:54:24;;;;;;;3.17;2.87;;;10.20;99.90;;;;;;5019313;28;20338;-73
2022/04/21 07:57:08;;;;;;;4.10;2.70;;;10.30;99.90;;;;;;5033126;28;20226;-73
2022/04/21 07:59:52;;;;;;;4.20;2.10;;;10.30;99.90;;;;;;5022506;28;20654;-74
2022/04/21 08:02:41;;;;;;;4.70;2.60;;;10.30;99.90;;;;;;5023532;28;20182;-74
2022/04/21 08:05:25;;;;;;;2.90;2.60;;;10.30;99.90;;;;;;5017795;28;20313;-72
2022/04/21 08:08:11;;;;;;;3.33;2.50;;;10.40;99.90;;;;;;5022485;28;20188;-73
2022/04/21 08:10:55;;;;;;;3.00;2.40;;;10.50;99.90;;;;;;5035262;28;20170;-74
2022/04/21 08:13:39;;;;;;;3.70;2.77;;;10.50;99.90;;;;;;5020429;28;20699;-74
2022/04/21 08:16:23;;;;;;;4.77;2.40;;;10.60;99.90;;;;;;5020602;28;20254;-74
2022/04/21 08:19:08;;;;;;;4.83;2.30;;;10.70;99.90;;;;;;5022024;28;20248;-75
2022/04/21 08:21:52;;;;;;;5.27;2.57;;;10.80;99.90;;;;;;5040106;28;20199;-75
2022/04/21 08:33:46;;;;;;;2.63;1.87;;;11.50;99.90;;;;;;5019689;28;20245;-74
2022/04/21 08:36:30;;;;;;;4.83;2.27;;;11.50;99.90;;;;;;5033463;28;20299;-75
2022/04/21 08:39:14;;;;;;;3.70;2.00;;;11.60;99.90;;;;;;5029276;28;20555;-74
2022/04/21 08:42:10;;;;;;;4.13;2.37;;;11.70;99.90;;;;;;5020501;28;20181;-74
2022/04/21 08:44:58;;;;;;;2.17;1.97;;;11.80;99.90;;;;;;5019672;28;20184;-76
2022/04/21 08:47:46;;;;;;;3.80;2.10;;;11.80;99.90;;;;;;5018549;28;20316;-75
2022/04/21 08:50:31;;;;;;;3.77;2.20;;;11.90;99.90;;;;;;5020534;28;20234;-75
2022/04/21 08:53:19;;;;;;;2.13;1.90;;;12.00;99.90;;;;;;5021529;28;20247;-75
2022/04/21 08:56:04;;;;;;;3.73;2.57;;;12.00;99.90;;;;;;5017892;28;20335;-75
2022/04/21 08:58:48;;;;;;;2.47;2.10;;;12.10;99.90;;;;;;5012127;28;20216;-75
2022/04/21 09:01:33;;;;;;;3.67;2.73;;;12.20;99.90;;;;;;5015828;28;20192;-74
2022/04/21 09:04:17;;;;;;;2.77;2.33;;;12.10;99.90;;;;;;5033504;28;20199;-74
2022/04/21 09:07:17;;;;;;;3.63;2.30;;;12.20;99.90;;;;;;5015690;28;20266;-76
2022/04/21 09:10:13;;;;;;;1.90;1.80;;;12.30;99.90;;;;;;5033056;28;20216;-74
2022/04/21 09:12:59;;;;;;;5.10;1.87;;;12.20;99.90;;;;;;5015552;28;20255;-73
2022/04/21 09:15:45;;;;;;;2.73;2.10;;;12.20;99.90;;;;;;5032745;28;20247;-75
2022/04/21 09:18:42;;;;;;;2.63;2.40;;;12.20;99.90;;;;;;5033336;28;20576;-75
2022/04/21 09:21:38;;;;;;;2.63;1.90;;;12.20;99.90;;;;;;5018679;28;20200;-76
2022/04/21 09:24:27;;;;;;;6.07;2.40;;;12.20;99.90;;;;;;5019205;28;20204;-75
2022/04/21 09:27:11;;;;;;;2.83;2.23;;;12.20;99.90;;;;;;5015357;28;20703;-75
2022/04/21 09:30:02;;;;;;;2.93;2.33;;;12.10;99.90;;;;;;5017915;28;20271;-75
2022/04/21 09:32:53;;;;;;;5.33;2.33;;;12.20;99.90;;;;;;5014113;28;20306;-75
2022/04/21 09:35:39;;;;;;;4.90;2.43;;;12.10;99.90;;;;;;5016759;28;20300;-74
2022/04/21 09:38:24;;;;;;;5.23;2.80;;;12.20;99.90;;;;;;5020385;28;20699;-74
2022/04/21 09:41:13;;;;;;;2.50;2.20;;;12.30;99.90;;;;;;5030575;28;20207;-74
2022/04/21 09:47:31;;;;;;;3.97;2.27;;;12.30;99.90;;;;;;5012498;28;20975;-74
2022/04/21 09:50:15;;;;;;;4.37;2.30;;;12.40;99.90;;;;;;5015933;28;20200;-73
2022/04/21 09:53:03;;;;;;;3.70;2.50;;;12.50;99.90;;;;;;5017541;28;20290;-74
2022/04/21 09:55:49;;;;;;;4.37;2.33;;;12.50;99.90;;;;;;5034270;28;20215;-73
2022/04/21 09:58:38;;;;;;;3.13;2.50;;;12.60;99.90;;;;;;5019371;28;20183;-74
2022/04/21 10:01:22;;;;;;;3.50;2.13;;;12.70;99.90;;;;;;5033336;28;20214;-74
2022/04/21 10:04:08;;;;;;;2.97;2.43;;;12.70;99.90;;;;;;5018699;28;20261;-73
2022/04/21 10:06:53;;;;;;;2.93;2.47;;;12.80;99.90;;;;;;5029980;28;20223;-75
2022/04/21 10:09:39;;;;;;;4.77;2.50;;;12.80;99.90;;;;;;5033530;28;20191;-74
2022/04/21 10:12:24;;;;;;;7.20;2.40;;;12.90;99.90;;;;;;5014562;28;20195;-75
2022/04/21 10:15:10;;;;;;;3.13;2.53;;;12.90;99.90;;;;;;5029274;28;20214;-75
2022/04/21 10:17:54;;;;;;;4.73;2.40;;;13.00;99.90;;;;;;5015849;28;20189;-75
2022/04/21 10:20:40;;;;;;;5.03;2.63;;;13.00;99.90;;;;;;5016792;28;20199;-74
2022/04/21 10:23:28;;;;;;;5.20;2.87;;;13.20;99.90;;;;;;5016793;28;20235;-74
2022/04/21 10:26:12;;;;;;;2.30;2.10;;;13.30;99.90;;;;;;5017679;28;20216;-76
2022/04/21 10:28:56;;;;;;;2.73;2.50;;;13.30;99.90;;;;;;5019959;28;20218;-75
2022/04/21 10:31:46;;;;;;;7.27;3.03;;;13.40;99.90;;;;;;5018944;28;20223;-75
2022/04/21 10:34:45;;;;;;;3.93;2.40;;;13.50;99.90;;;;;;5021998;28;20235;-74
2022/04/21 10:37:32;;;;;;;9.73;2.23;;;13.60;99.90;;;;;;5024982;28;20210;-75
2022/04/21 10:40:21;;;;;;;2.60;1.97;;;13.70;99.90;;;;;;5024188;28;20195;-75
2022/04/21 10:43:05;;;;;;;4.83;2.37;;;13.60;99.90;;;;;;5034692;28;20230;-74
2022/04/21 10:46:04;;;;;;;6.07;2.33;;;13.60;99.90;;;;;;5022285;28;20265;-76
2022/04/21 10:48:49;;;;;;;7.70;2.53;;;13.60;99.90;;;;;;5018297;28;20192;-75
2022/04/21 10:57:50;;;;;;;3.00;2.60;;;13.70;99.90;;;;;;5024848;28;20187;-75
2022/04/21 11:00:35;;;;;;;5.00;2.93;;;13.80;99.90;;;;;;5034750;28;20687;-75
2022/04/21 11:03:25;;;;;;;3.90;2.80;;;13.80;99.90;;;;;;5021600;28;20239;-75
2022/04/21 11:06:17;;;;;;;3.10;2.80;;;13.90;99.90;;;;;;5016495;28;20215;-75
2022/04/21 11:09:01;;;;;;;4.23;3.00;;;14.10;99.90;;;;;;5034113;28;20685;-75
2022/04/21 11:11:48;;;;;;;4.67;2.40;;;14.10;99.90;;;;;;5023462;28;20211;-75
2022/04/21 11:14:36;;;;;;;3.63;2.60;;;14.10;99.90;;;;;;5034425;28;20236;-75
2022/04/21 11:17:23;;;;;;;6.80;2.60;;;14.20;99.90;;;;;;5034488;28;20255;-75
2022/04/21 11:20:25;;;;;;;3.40;2.57;;;14.20;99.90;;;;;;5016109;28;20247;-76
2022/04/21 11:23:23;;;;;;;4.17;2.80;;;14.20;99.90;;;;;;5022449;28;20222;-76
2022/04/21 11:26:08;;;;;;;4.23;2.70;;;14.20;99.90;;;;;;5039804;28;20223;-75
2022/04/21 11:28:53;;;;;;;4.97;2.77;;;14.20;99.90;;;;;;5021285;28;20223;-76
2022/04/21 11:31:39;;;;;;;6.50;2.97;;;14.20;99.90;;;;;;5020667;28;20273;-76
2022/04/21 11:34:25;;;;;;;6.07;3.20;;;14.20;99.90;;;;;;5028083;28;20186;-76
2022/04/21 11:37:09;;;;;;;4.67;2.90;;;14.30;99.90;;;;;;5018707;28;20224;-75
2022/04/21 11:39:53;;;;;;;4.30;2.90;;;14.30;99.90;;;;;;5013545;28;20212;-76
2022/04/21 11:42:38;;;;;;;4.30;3.10;;;14.40;99.90;;;;;;5020589;28;20215;-76
2022/04/21 11:45:24;;;;;;;4.17;2.80;;;14.50;99.90;;;;;;5022809;28;20220;-75
2022/04/21 11:48:12;;;;;;;5.10;2.70;;;14.60;99.90;;;;;;5036786;28;20186;-75
2022/04/21 11:50:56;;;;;;;3.73;3.03;;;14.60;99.90;;;;;;5015623;28;20239;-76
2022/04/21 11:53:41;;;;;;;4.13;3.20;;;14.70;99.90;;;;;;5015731;28;20287;-76
2022/04/21 11:56:27;;;;;;;3.57;2.73;;;14.80;99.90;;;;;;5017989;28;20816;-75
2022/04/21 11:59:11;;;;;;;6.20;2.90;;;14.80;99.90;;;;;;5017883;28;20218;-75
2022/04/21 12:08:01;;;;;;;3.10;2.80;;;15.00;99.90;;;;;;5021723;28;20683;-75
2022/04/21 12:10:46;;;;;;;3.10;2.87;;;15.00;99.90;;;;;;5019777;28;20207;-76
2022/04/21 12:13:30;;;;;;;7.00;2.80;;;15.10;99.90;;;;;;5019002;28;20255;-75
2022/04/21 12:16:48;;;;;;;6.27;3.00;;;15.10;99.90;;;;;;5015330;28;20656;-76
2022/04/21 12:19:37;;;;;;;5.10;2.77;;;15.20;99.90;;;;;;5018319;28;20192;-75
2022/04/21 12:22:32;;;;;;;4.63;3.00;;;15.20;99.90;;;;;;5037622;28;20212;-75
2022/04/21 12:25:16;;;;;;;4.40;3.20;;;15.20;99.90;;;;;;5017425;28;20694;-76
2022/04/21 12:28:05;;;;;;;5.70;3.07;;;15.20;99.90;;;;;;5023660;28;20188;-76
2022/04/21 12:30:49;;;;;;;7.73;3.20;;;15.30;99.90;;;;;;5022457;28;20196;-76
2022/04/21 12:33:43;;;;;;;5.20;3.40;;;15.30;99.90;;;;;;5033379;28;20551;-76
2022/04/21 12:36:27;;;;;;;4.93;3.33;;;15.30;99.90;;;;;;5018873;28;20215;-75
2022/04/21 12:39:12;;;;;;;3.70;3.20;;;15.30;99.90;;;;;;5019646;28;20188;-76
2022/04/21 12:41:57;;;;;;;3.63;2.87;;;15.40;99.90;;;;;;5015560;28;20234;-75
2022/04/21 12:44:43;;;;;;;4.03;3.40;;;15.40;99.90;;;;;;5022071;28;20223;-75
2022/04/21 12:47:27;;;;;;;6.73;3.03;;;15.40;99.90;;;;;;5021830;28;20242;-76
2022/04/21 12:50:21;;;;;;;5.07;3.23;;;15.40;99.90;;;;;;5031658;28;20252;-77
2022/04/21 12:53:06;;;;;;;8.43;3.17;;;15.50;99.90;;;;;;5017564;28;20235;-75
2022/04/21 12:55:51;;;;;;;7.37;3.30;;;15.50;99.90;;;;;;5023121;28;20214;-75
2022/04/21 12:58:35;;;;;;;4.47;3.30;;;15.60;99.90;;;;;;5029984;28;20227;-75
2022/04/21 13:01:20;;;;;;;10.10;3.80;;;15.70;99.90;;;;;;5032858;28;20238;-75
2022/04/21 13:04:04;;;;;;;5.23;2.70;;;15.70;99.90;;;;;;5020659;28;20246;-74
2022/04/21 13:06:48;;;;;;;5.60;2.53;;;15.80;99.90;;;;;;5025130;28;20214;-74
2022/04/21 13:09:32;;;;;;;3.43;2.37;;;15.80;99.90;;;;;;5030934;28;20273;-75
2022/04/21 13:12:16;;;;;;;4.43;3.03;;;15.90;99.90;;;;;;5017596;28;20211;-76
2022/04/21 13:15:04;;;;;;;3.83;2.83;;;16.00;99.90;;;;;;5018236;28;20183;-74
2022/04/21 13:17:48;;;;;;;2.97;2.23;;;16.10;99.90;;;;;;5019705;28;20188;-75
2022/04/21 13:23:36;;;;;;;3.47;1.90;;;16.20;99.90;;;;;;5018614;28;20231;-76
2022/04/21 13:26:22;;;;;;;8.87;2.30;;;16.30;99.90;;;;;;5022331;28;20231;-75
2022/04/21 13:29:06;;;;;;;4.00;2.53;;;16.30;99.90;;;;;;5033633;28;20195;-74
2022/04/21 13:34:54;;;;;;;5.37;2.73;;;16.40;99.90;;;;;;5021790;28;20279;-72
2022/04/21 13:37:38;;;;;;;3.10;2.73;;;16.40;99.90;;;;;;5022038;28;20188;-71
2022/04/21 13:40:23;;;;;;;2.93;2.07;;;16.30;99.90;;;;;;5016282;28;20211;-72
2022/04/21 13:43:07;;;;;;;3.33;2.30;;;16.30;99.90;;;;;;5021747;28;20552;-71
2022/04/21 13:45:52;;;;;;;2.83;2.43;;;16.40;99.90;;;;;;5017484;28;20219;-72
2022/04/21 13:48:36;;;;;;;4.20;2.37;;;16.40;99.90;;;;;;5030020;28;20208;-72
2022/04/21 13:51:20;;;;;;;7.60;2.30;;;16.40;99.90;;;;;;5020269;28;20207;-73
2022/04/21 13:54:05;;;;;;;3.07;2.27;;;16.30;99.90;;;;;;5022345;28;20227;-72
2022/04/21 13:56:49;;;;;;;2.70;2.27;;;16.30;99.90;;;;;;5020127;28;20206;-72
2022/04/21 13:59:34;;;;;;;2.47;2.20;;;16.30;99.90;;;;;;5019879;28;20214;-72
2022/04/21 14:02:18;;;;;;;2.03;1.93;;;16.30;99.90;;;;;;5029281;28;20200;-72
2022/04/21 14:05:02;;;;;;;5.17;2.20;;;16.30;99.90;;;;;;5019249;28;20290;-72
2022/04/21 14:07:46;;;;;;;8.80;2.40;;;16.30;99.90;;;;;;5020941;28;20277;-72
2022/04/21 14:10:30;;;;;;;5.53;2.17;;;16.30;99.90;;;;;;5028446;28;20263;-72
2022/04/21 14:13:15;;;;;;;3.97;2.30;;;16.40;99.90;;;;;;5019743;28;20270;-72
2022/04/21 14:16:01;;;;;;;3.80;2.50;;;16.40;99.90;;;;;;5018196;28;20231;-72
2022/04/21 14:18:46;;;;;;;3.87;2.27;;;16.50;99.90;;;;;;5033760;28;20275;-72
2022/04/21 14:21:35;;;;;;;2.73;2.30;;;16.50;99.90;;;;;;5010992;28;20196;-72
2022/04/21 14:24:19;;;;;;;3.13;2.53;;;16.50;99.90;;;;;;5017535;28;20180;-72
2022/04/21 14:27:05;;;;;;;4.13;2.63;;;16.50;99.90;;;;;;5017108;28;20275;-72
2022/04/21 14:29:49;;;;;;;3.00;2.10;;;16.50;99.90;;;;;;5033428;28;20181;-72
2022/04/21 14:32:33;;;;;;;4.27;2.53;;;16.50;99.90;;;;;;5021262;28;20207;-72
2022/04/21 14:35:17;;;;;;;3.53;2.17;;;16.60;99.90;;;;;;5021563;28;20285;-72
2022/04/21 14:44:08;;;;;;;3.83;2.07;;;16.60;99.90;;;;;;5020246;28;20182;-72
2022/04/21 14:46:54;;;;;;;5.73;2.43;;;16.60;99.90;;;;;;5027710;28;20237;-72
2022/04/21 14:49:39;;;;;;;9.77;1.93;;;16.70;99.90;;;;;;5014738;28;20243;-71
2022/04/21 14:52:23;;;;;;;1.80;1.70;;;16.70;99.90;;;;;;5020659;28;20207;-73
2022/04/21 14:55:08;;;;;;;3.73;2.10;;;16.70;99.90;;;;;;5018884;28;20230;-71
2022/04/21 14:57:52;;;;;;;2.90;2.00;;;16.80;99.90;;;;;;5014037;28;20243;-71
2022/04/21 15:00:38;;;;;;;3.27;1.80;;;16.80;99.90;;;;;;5028509;28;20585;-72
2022/04/21 15:03:22;;;;;;;3.33;2.10;;;16.80;99.90;;;;;;5017166;28;20243;-72
2022/04/21 15:06:08;;;;;;;4.37;1.60;;;16.70;99.90;;;;;;5034099;28;20244;-72
2022/04/21 15:08:53;;;;;;;4.40;1.50;;;16.70;99.90;;;;;;5029828;28;20192;-71
2022/04/21 15:11:41;;;;;;;2.93;1.40;;;16.70;99.90;;;;;;5016072;28;20227;-72
2022/04/21 15:14:25;;;;;;;3.77;1.30;;;16.70;99.90;;;;;;5016052;28;20581;-72
2022/04/21 15:17:09;;;;;;;3.83;1.60;;;16.70;99.90;;;;;;5021651;28;20584;-72
2022/04/21 15:19:54;;;;;;;8.30;1.80;;;16.70;99.90;;;;;;5022547;28;20187;-71
2022/04/21 15:22:38;;;;;;;10.00;1.60;;;16.70;99.90;;;;;;5036446;28;20242;-71
2022/04/21 15:25:23;;;;;;;2.53;1.50;;;16.70;99.90;;;;;;5033208;28;20210;-73
2022/04/21 15:28:09;;;;;;;3.77;1.73;;;16.70;99.90;;;;;;5021061;28;20188;-71
2022/04/21 15:30:53;;;;;;;4.67;1.50;;;16.70;99.90;;;;;;5017174;28;20723;-72